createdAt,value
2019-03-19T00:01:55.184Z,10.87
2019-03-19T00:04:35.203Z,10.00
2019-03-19T00:07:15.117Z,13.13
2019-03-19T00:09:55.181Z,10.63
2019-03-19T00:12:35.291Z,12.63
2019-03-19T00:15:15.320Z,8.73
2019-03-19T00:17:55.535Z,11.50
2019-03-19T00:20:35.654Z,14.47
2019-03-19T00:23:15.845Z,8.23
2019-03-19T00:25:55.965Z,11.97
2019-03-19T00:28:36.044Z,14.13
2019-03-19T00:31:16.188Z,10.40
2019-03-19T00:33:56.220Z,14.47
2019-03-19T00:36:35.998Z,16.03
2019-03-19T00:39:15.988Z,13.03
2019-03-19T00:41:56.032Z,8.00
2019-03-19T00:44:36.108Z,10.63
2019-03-19T00:47:16.278Z,17.70
2019-03-19T00:49:56.252Z,12.47
2019-03-19T00:52:36.124Z,16.63
2019-03-19T00:55:16.071Z,15.67
2019-03-19T00:57:56.300Z,15.87
2019-03-19T01:00:36.429Z,12.90
2019-03-19T01:03:16.359Z,12.73
2019-03-19T01:05:56.514Z,13.50
2019-03-19T01:08:36.171Z,12.23
2019-03-19T01:11:16.293Z,11.87
2019-03-19T01:13:56.169Z,18.17
2019-03-19T01:16:36.362Z,16.60
2019-03-19T01:19:16.492Z,14.10
2019-03-19T01:21:56.496Z,11.63
2019-03-19T01:24:36.406Z,17.40
2019-03-19T01:27:16.621Z,13.90
2019-03-19T01:29:56.485Z,9.93
2019-03-19T01:32:36.403Z,16.47
2019-03-19T01:35:16.410Z,15.07
2019-03-19T01:37:56.527Z,14.50
2019-03-19T01:40:36.470Z,15.80
2019-03-19T01:43:16.452Z,17.10
2019-03-19T01:45:56.280Z,19.07
2019-03-19T01:48:36.525Z,14.83
2019-03-19T01:51:16.541Z,10.27
2019-03-19T01:53:56.983Z,11.37
2019-03-19T01:56:37.047Z,17.33
2019-03-19T01:59:17.071Z,13.07
2019-03-19T02:01:57.306Z,13.40
2019-03-19T02:04:37.212Z,13.67
2019-03-19T02:07:17.232Z,9.80
2019-03-19T02:09:57.248Z,12.67
2019-03-19T02:12:37.359Z,18.40
2019-03-19T02:15:17.138Z,11.57
2019-03-19T02:17:57.048Z,15.25
2019-03-19T02:20:36.871Z,15.90
2019-03-19T02:23:16.676Z,15.03
2019-03-19T02:25:56.530Z,11.10
2019-03-19T02:28:36.516Z,16.97
2019-03-19T02:31:16.521Z,13.97
2019-03-19T02:33:56.401Z,16.20
2019-03-19T02:36:36.609Z,16.80
2019-03-19T02:39:16.439Z,24.00
2019-03-19T02:41:56.401Z,11.90
2019-03-19T02:44:36.399Z,16.02
2019-03-19T02:47:16.584Z,19.85
2019-03-19T02:49:56.763Z,9.27
2019-03-19T02:52:36.657Z,14.30
2019-03-19T02:55:16.659Z,13.33
2019-03-19T02:57:56.540Z,18.90
2019-03-19T03:00:36.609Z,14.90
2019-03-19T03:03:16.764Z,15.65
2019-03-19T03:05:57.005Z,13.53
2019-03-19T03:08:36.822Z,12.70
2019-03-19T03:11:16.860Z,15.53
2019-03-19T03:13:57.079Z,14.60
2019-03-19T03:16:37.156Z,17.17
2019-03-19T03:19:17.026Z,13.75
2019-03-19T03:21:57.124Z,15.53
2019-03-19T03:24:37.101Z,13.38
2019-03-19T03:27:17.446Z,16.37
2019-03-19T03:29:57.232Z,17.57
2019-03-19T03:32:37.295Z,13.50
2019-03-19T03:35:17.240Z,14.18
2019-03-19T03:37:57.391Z,21.62
2019-03-19T03:40:37.625Z,11.08
2019-03-19T03:43:17.612Z,10.82
2019-03-19T03:45:57.421Z,10.40
2019-03-19T03:48:37.606Z,18.37
2019-03-19T03:51:17.698Z,14.85
2019-03-19T03:53:57.683Z,20.32
2019-03-19T03:56:37.742Z,14.07
2019-03-19T03:59:17.730Z,14.95
2019-03-19T04:01:57.892Z,13.53
2019-03-19T04:04:38.193Z,18.23
2019-03-19T04:07:18.289Z,16.73
2019-03-19T04:09:58.039Z,14.60
2019-03-19T04:12:37.903Z,15.10
2019-03-19T04:15:17.937Z,14.70
2019-03-19T04:17:58.062Z,19.37
2019-03-19T04:20:37.905Z,21.48
2019-03-19T04:23:17.846Z,15.90
2019-03-19T04:25:57.939Z,8.80
2019-03-19T04:28:38.062Z,18.55
2019-03-19T04:31:18.172Z,10.82
2019-03-19T04:33:58.131Z,18.35
2019-03-19T04:36:38.234Z,12.95
2019-03-19T04:39:18.583Z,17.42
2019-03-19T04:41:58.420Z,17.25
2019-03-19T04:44:38.594Z,12.55
2019-03-19T04:47:18.691Z,20.65
2019-03-19T04:49:58.709Z,11.80
2019-03-19T04:52:38.688Z,13.03
2019-03-19T04:55:18.952Z,9.15
2019-03-19T04:57:58.925Z,17.20
2019-03-19T05:00:39.197Z,11.22
2019-03-19T05:03:19.314Z,6.62
2019-03-19T05:05:59.750Z,12.15
2019-03-19T05:08:40.044Z,14.68
2019-03-19T05:11:20.156Z,17.45
2019-03-19T05:14:00.254Z,9.50
2019-03-19T05:16:40.359Z,21.27
2019-03-19T05:19:20.331Z,11.33
2019-03-19T05:22:00.349Z,16.52
2019-03-19T05:24:40.283Z,11.15
2019-03-19T05:27:20.479Z,12.70
2019-03-19T05:30:00.378Z,13.48
2019-03-19T05:32:40.393Z,18.40
2019-03-19T05:35:20.375Z,13.62
2019-03-19T05:38:00.721Z,18.30
2019-03-19T05:40:40.437Z,12.88
2019-03-19T05:43:20.468Z,14.65
2019-03-19T05:46:00.449Z,17.57
2019-03-19T05:48:40.435Z,20.32
2019-03-19T05:51:20.213Z,14.50
2019-03-19T05:54:00.119Z,13.98
2019-03-19T05:56:40.133Z,14.25
2019-03-19T05:59:20.111Z,13.98
2019-03-19T06:02:00.182Z,14.98
2019-03-19T06:04:40.216Z,21.55
2019-03-19T06:07:20.084Z,19.45
2019-03-19T06:10:00.058Z,12.53
2019-03-19T06:12:40.057Z,12.27
2019-03-19T06:15:20.155Z,13.60
2019-03-19T06:18:00.125Z,14.87
2019-03-19T06:20:40.198Z,14.73
2019-03-19T06:23:20.203Z,15.40
2019-03-19T06:25:59.961Z,11.87
2019-03-19T06:28:39.996Z,18.47
2019-03-19T06:31:20.004Z,12.87
2019-03-19T06:34:00.213Z,19.73
2019-03-19T06:36:40.178Z,9.40
2019-03-19T06:39:20.230Z,12.20
2019-03-19T06:42:00.188Z,15.10
2019-03-19T06:44:40.086Z,15.07
2019-03-19T06:47:20.012Z,16.10
2019-03-19T06:50:00.389Z,12.63
2019-03-19T06:52:40.111Z,15.63
2019-03-19T06:55:20.060Z,13.77
2019-03-19T06:58:10.333Z,12.40
2019-03-19T07:00:42.082Z,14.70
2019-03-19T07:03:22.265Z,14.50
2019-03-19T07:06:02.243Z,15.10
2019-03-19T07:08:42.326Z,20.63
2019-03-19T07:11:22.249Z,16.10
2019-03-19T07:14:02.370Z,14.30
2019-03-19T07:16:42.248Z,13.57
2019-03-19T07:19:22.186Z,11.27
2019-03-19T07:22:02.421Z,12.10
2019-03-19T07:24:42.289Z,13.07
2019-03-19T07:27:22.260Z,16.30
2019-03-19T07:30:02.535Z,13.10
2019-03-19T07:32:42.313Z,14.30
2019-03-19T07:35:22.294Z,15.57
2019-03-19T07:38:02.310Z,9.70
2019-03-19T07:40:42.667Z,11.20
2019-03-19T07:43:22.665Z,17.40
2019-03-19T07:46:02.810Z,7.97
2019-03-19T07:48:42.986Z,8.50
2019-03-19T07:51:23.165Z,11.73
2019-03-19T07:54:03.324Z,11.60
2019-03-19T07:56:43.528Z,13.27
2019-03-19T07:59:23.138Z,13.97
2019-03-19T08:02:03.210Z,13.60
2019-03-19T08:04:43.033Z,15.10
2019-03-19T08:07:23.308Z,14.73
2019-03-19T08:10:03.190Z,12.47
2019-03-19T08:12:43.382Z,12.30
2019-03-19T08:15:23.252Z,9.90
2019-03-19T08:18:02.918Z,8.80
2019-03-19T08:20:42.722Z,12.53
2019-03-19T08:23:22.555Z,13.03
2019-03-19T08:26:02.389Z,14.60
2019-03-19T08:28:42.501Z,14.50
2019-03-19T08:31:22.523Z,12.17
2019-03-19T08:34:02.472Z,12.43
2019-03-19T08:36:42.467Z,10.00
2019-03-19T08:39:22.705Z,8.47
2019-03-19T08:42:02.697Z,11.10
2019-03-19T08:44:42.766Z,10.97
2019-03-19T08:47:22.742Z,9.40
2019-03-19T08:50:02.770Z,13.87
2019-03-19T08:52:42.803Z,8.83
2019-03-19T08:55:23.041Z,12.30
2019-03-19T08:58:02.967Z,11.77
2019-03-19T09:00:43.146Z,15.13
2019-03-19T09:03:23.042Z,8.07
2019-03-19T09:06:03.145Z,15.17
2019-03-19T09:08:42.977Z,10.47
2019-03-19T09:11:23.098Z,15.90
2019-03-19T09:14:03.057Z,8.27
2019-03-19T09:16:42.994Z,9.57
2019-03-19T09:19:22.856Z,13.53
2019-03-19T09:22:03.058Z,13.90
2019-03-19T09:24:43.139Z,6.97
2019-03-19T09:27:23.199Z,9.17
2019-03-19T09:30:03.168Z,14.87
2019-03-19T09:32:43.170Z,8.37
2019-03-19T09:35:23.186Z,12.13
2019-03-19T09:38:03.258Z,7.53
2019-03-19T09:40:43.274Z,9.90
2019-03-19T09:43:23.510Z,8.83
2019-03-19T09:46:03.649Z,6.43
2019-03-19T09:48:43.675Z,7.30
2019-03-19T09:51:23.652Z,12.67
2019-03-19T09:54:05.567Z,6.67
2019-03-19T09:56:45.624Z,5.77
2019-03-19T09:59:27.329Z,9.53
2019-03-19T10:02:07.402Z,9.23
2019-03-19T10:04:47.646Z,12.23
2019-03-19T10:07:27.431Z,7.20
2019-03-19T10:10:07.330Z,8.63
2019-03-19T10:12:51.144Z,7.37
2019-03-19T10:15:31.709Z,11.77
2019-03-19T10:18:11.765Z,8.50
2019-03-19T10:20:51.796Z,9.17
2019-03-19T10:23:31.783Z,6.33
2019-03-19T10:26:11.854Z,10.37
2019-03-19T10:28:51.610Z,5.07
2019-03-19T10:31:31.624Z,6.97
2019-03-19T10:34:11.615Z,13.43
2019-03-19T10:36:51.656Z,7.60
2019-03-19T10:39:31.571Z,4.90
2019-03-19T10:42:11.777Z,5.20
2019-03-19T10:44:51.812Z,9.77
2019-03-19T10:47:31.805Z,5.77
2019-03-19T10:50:11.714Z,3.67
2019-03-19T10:52:51.996Z,6.20
2019-03-19T10:55:31.786Z,7.90
2019-03-19T10:58:11.618Z,7.07
2019-03-19T11:00:51.496Z,9.30
2019-03-19T11:03:31.694Z,5.73
2019-03-19T11:06:11.634Z,7.10
2019-03-19T11:08:51.602Z,8.43
2019-03-19T11:11:31.406Z,8.17
2019-03-19T11:14:11.428Z,6.03
2019-03-19T11:16:51.278Z,5.93
2019-03-19T11:19:31.173Z,11.97
2019-03-19T11:22:11.042Z,4.97
2019-03-19T11:24:50.918Z,6.77
2019-03-19T11:27:30.947Z,7.20
2019-03-19T11:30:10.852Z,6.20
2019-03-19T11:32:50.800Z,5.43
2019-03-19T11:35:30.953Z,6.50
2019-03-19T11:38:11.006Z,7.33
2019-03-19T11:40:51.081Z,4.90
2019-03-19T11:43:30.996Z,5.97
2019-03-19T11:46:11.056Z,7.67
2019-03-19T11:48:50.908Z,2.70
2019-03-19T11:51:30.985Z,7.37
2019-03-19T11:54:11.028Z,6.50
2019-03-19T11:56:51.091Z,11.40
2019-03-19T11:59:31.115Z,6.23
2019-03-19T12:02:11.785Z,4.30
2019-03-19T12:04:52.145Z,4.73
2019-03-19T12:07:32.423Z,3.23
2019-03-19T12:10:12.132Z,4.83
2019-03-19T12:12:52.191Z,6.80
2019-03-19T12:15:32.248Z,6.67
2019-03-19T12:18:12.405Z,5.60
2019-03-19T12:20:52.622Z,6.47
2019-03-19T12:23:32.394Z,7.53
2019-03-19T12:26:12.403Z,3.60
2019-03-19T12:28:52.642Z,5.23
2019-03-19T12:31:32.785Z,6.20
2019-03-19T12:34:12.901Z,5.93
2019-03-19T12:36:53.049Z,5.33
2019-03-19T12:39:33.158Z,4.30
2019-03-19T12:42:13.104Z,5.43
2019-03-19T12:44:53.373Z,6.33
2019-03-19T12:47:33.258Z,6.83
2019-03-19T12:50:13.444Z,6.10
2019-03-19T12:52:53.255Z,3.73
2019-03-19T12:55:33.511Z,6.20
2019-03-19T12:58:13.641Z,5.87
2019-03-19T13:00:53.653Z,9.30
2019-03-19T13:03:33.643Z,3.77
2019-03-19T13:06:13.612Z,7.77
2019-03-19T13:08:53.699Z,9.10
2019-03-19T13:11:33.806Z,4.43
2019-03-19T13:14:13.816Z,6.30
2019-03-19T13:16:53.912Z,5.33
2019-03-19T13:19:33.948Z,7.20
2019-03-19T13:22:13.911Z,3.60
2019-03-19T13:24:53.794Z,5.80
2019-03-19T13:27:33.846Z,10.73
2019-03-19T13:30:13.794Z,8.87
2019-03-19T13:32:53.868Z,5.00
2019-03-19T13:35:33.909Z,3.43
2019-03-19T13:38:14.255Z,5.97
2019-03-19T13:40:54.320Z,2.67
2019-03-19T13:43:34.406Z,6.50
2019-03-19T13:46:14.297Z,5.63
2019-03-19T13:48:54.238Z,5.10
2019-03-19T13:51:34.283Z,5.73
2019-03-19T13:54:16.655Z,7.23
2019-03-19T13:56:56.365Z,3.00
2019-03-19T13:59:36.380Z,6.03
2019-03-19T14:02:16.401Z,4.60
2019-03-19T14:04:56.520Z,3.03
2019-03-19T14:07:36.624Z,3.50
2019-03-19T14:10:16.627Z,5.97
2019-03-19T14:12:56.773Z,3.37
2019-03-19T14:15:36.716Z,3.07
2019-03-19T14:18:16.837Z,4.20
2019-03-19T14:20:56.811Z,3.70
2019-03-19T14:23:36.745Z,4.70
2019-03-19T14:26:16.705Z,1.43
2019-03-19T14:28:57.025Z,2.90
2019-03-19T14:31:36.895Z,6.33
2019-03-19T14:34:16.860Z,4.47
2019-03-19T14:36:56.827Z,4.97
2019-03-19T14:39:36.719Z,3.47
2019-03-19T14:42:19.390Z,2.13
2019-03-19T14:44:58.985Z,5.57
2019-03-19T14:47:38.974Z,4.43
2019-03-19T14:50:19.117Z,7.37
2019-03-19T14:52:58.953Z,8.17
2019-03-19T14:55:39.042Z,4.67
2019-03-19T14:58:19.228Z,8.43
2019-03-19T15:00:59.562Z,3.57
2019-03-19T15:03:39.621Z,3.67
2019-03-19T15:06:19.634Z,5.43
2019-03-19T15:08:59.905Z,4.30
2019-03-19T15:11:39.988Z,7.17
2019-03-19T15:14:19.984Z,6.43
2019-03-19T15:17:04.793Z,5.20
2019-03-19T15:19:41.959Z,6.63
2019-03-19T15:22:32.094Z,4.57
2019-03-19T15:25:04.141Z,4.47
2019-03-19T15:27:44.283Z,6.20
2019-03-19T15:30:24.011Z,6.77
2019-03-19T15:33:03.984Z,5.77
2019-03-19T15:35:43.985Z,4.50
2019-03-19T15:38:24.113Z,6.80
2019-03-19T15:41:04.244Z,4.83
2019-03-19T15:43:44.041Z,6.27
2019-03-19T15:46:24.186Z,7.30
2019-03-19T15:49:04.225Z,2.73
2019-03-19T15:51:44.461Z,6.00
2019-03-19T15:54:26.562Z,3.93
2019-03-19T15:57:06.473Z,5.97
2019-03-19T15:59:46.616Z,5.00
2019-03-19T16:02:26.530Z,7.40
2019-03-19T16:05:06.673Z,4.53
2019-03-19T16:07:46.580Z,7.20
2019-03-19T16:10:26.818Z,5.57
2019-03-19T16:13:06.690Z,5.40
2019-03-19T16:15:46.841Z,7.00
2019-03-19T16:18:26.710Z,6.33
2019-03-19T16:21:06.791Z,8.43
2019-03-19T16:23:46.907Z,6.47
2019-03-19T16:26:26.830Z,6.37
2019-03-19T16:29:06.669Z,4.13
2019-03-19T16:31:50.809Z,4.33
2019-03-19T16:34:28.942Z,3.67
2019-03-19T16:37:08.730Z,6.10
2019-03-19T16:39:48.766Z,5.83
2019-03-19T16:42:28.745Z,3.80
2019-03-19T16:45:08.657Z,4.73
2019-03-19T16:47:48.895Z,6.43
2019-03-19T16:50:28.838Z,7.03
2019-03-19T16:53:08.581Z,5.43
2019-03-19T16:55:48.537Z,3.90
2019-03-19T16:58:28.417Z,6.23
2019-03-19T17:01:08.313Z,7.27
2019-03-19T17:03:48.422Z,3.30
2019-03-19T17:06:28.575Z,6.23
2019-03-19T17:09:08.500Z,4.20
2019-03-19T17:11:48.376Z,5.03
2019-03-19T17:14:28.486Z,4.13
2019-03-19T17:17:08.701Z,7.47
2019-03-19T17:19:48.655Z,4.07
2019-03-19T17:22:28.760Z,7.57
2019-03-19T17:25:08.814Z,4.30
2019-03-19T17:27:48.789Z,5.27
2019-03-19T17:30:28.678Z,5.97
2019-03-19T17:33:09.013Z,4.10
2019-03-19T17:35:48.686Z,3.60
2019-03-19T17:38:28.643Z,7.73
2019-03-19T17:41:08.804Z,4.80
2019-03-19T17:43:48.898Z,6.50
2019-03-19T17:46:29.026Z,4.97
2019-03-19T17:49:09.271Z,4.20
2019-03-19T17:51:49.151Z,5.87
2019-03-19T17:54:29.281Z,8.27
2019-03-19T17:57:09.205Z,7.67
2019-03-19T17:59:49.443Z,6.33
2019-03-19T18:02:29.533Z,9.63
2019-03-19T18:05:09.692Z,7.27
2019-03-19T18:07:49.623Z,5.33
2019-03-19T18:10:29.885Z,7.23
2019-03-19T18:13:09.875Z,10.13
2019-03-19T18:15:49.764Z,6.83
2019-03-19T18:18:29.842Z,5.77
2019-03-19T18:21:09.981Z,10.43
2019-03-19T18:23:50.194Z,8.67
2019-03-19T18:26:30.113Z,3.10
2019-03-19T18:29:10.651Z,5.50
2019-03-19T18:31:50.469Z,3.80
2019-03-19T18:34:30.390Z,8.43
2019-03-19T18:37:10.454Z,5.73
2019-03-19T18:39:50.412Z,6.27
2019-03-19T18:42:30.343Z,6.50
2019-03-19T18:45:10.580Z,4.17
2019-03-19T18:47:50.638Z,5.27
2019-03-19T18:50:30.747Z,4.10
2019-03-19T18:53:10.496Z,6.60
2019-03-19T18:55:50.390Z,6.83
2019-03-19T18:58:30.167Z,6.87
2019-03-19T19:01:09.911Z,6.70
2019-03-19T19:03:49.974Z,6.67
2019-03-19T19:06:30.023Z,12.83
2019-03-19T19:09:09.993Z,9.77
2019-03-19T19:11:50.061Z,14.00
2019-03-19T19:14:29.953Z,11.23
2019-03-19T19:17:10.212Z,11.30
2019-03-19T19:19:50.181Z,11.57
2019-03-19T19:22:30.230Z,9.17
2019-03-19T19:25:10.277Z,15.80
2019-03-19T19:27:50.247Z,12.33
2019-03-19T19:30:30.399Z,10.17
2019-03-19T19:33:10.394Z,8.37
2019-03-19T19:35:50.466Z,12.20
2019-03-19T19:38:30.438Z,10.53
2019-03-19T19:41:10.749Z,12.20
2019-03-19T19:43:50.518Z,11.47
2019-03-19T19:46:30.610Z,9.50
2019-03-19T19:49:10.669Z,14.07
2019-03-19T19:51:50.922Z,16.13
2019-03-19T19:54:30.857Z,14.67
2019-03-19T19:57:10.899Z,10.53
2019-03-19T19:59:51.177Z,11.00
2019-03-19T20:02:31.248Z,9.53
2019-03-19T20:05:11.185Z,11.17
2019-03-19T20:07:51.325Z,9.80
2019-03-19T20:10:31.081Z,9.10
2019-03-19T20:13:11.213Z,7.07
2019-03-19T20:15:51.176Z,13.20
2019-03-19T20:18:31.113Z,10.07
2019-03-19T20:21:11.176Z,8.43
2019-03-19T20:23:51.006Z,15.93
2019-03-19T20:26:30.900Z,15.83
2019-03-19T20:29:12.115Z,13.43
2019-03-19T20:31:52.128Z,15.73
2019-03-19T20:34:32.141Z,17.73
2019-03-19T20:37:12.108Z,10.20
2019-03-19T20:39:52.104Z,13.27
2019-03-19T20:42:31.903Z,15.67
2019-03-19T20:45:12.075Z,11.37
2019-03-19T20:47:52.126Z,12.37
2019-03-19T20:50:32.062Z,13.90
2019-03-19T20:53:12.077Z,12.87
2019-03-19T20:55:52.134Z,10.27
2019-03-19T20:58:42.865Z,9.50
2019-03-19T21:01:14.308Z,12.87
2019-03-19T21:03:54.239Z,10.90
2019-03-19T21:06:34.354Z,9.20
2019-03-19T21:09:14.593Z,12.30
2019-03-19T21:11:54.721Z,14.95
2019-03-19T21:14:34.510Z,15.77
2019-03-19T21:17:14.555Z,14.50
2019-03-19T21:19:54.446Z,10.00
2019-03-19T21:22:34.186Z,14.13
2019-03-19T21:25:14.243Z,12.35
2019-03-19T21:27:54.111Z,11.60
2019-03-19T21:30:34.006Z,10.00
2019-03-19T21:33:14.124Z,11.30
2019-03-19T21:35:54.276Z,9.37
2019-03-19T21:38:34.281Z,12.07
2019-03-19T21:41:14.433Z,8.70
2019-03-19T21:43:54.368Z,10.87
2019-03-19T21:46:34.411Z,9.60
2019-03-19T21:49:14.674Z,14.20
2019-03-19T21:51:54.906Z,16.43
2019-03-19T21:54:34.874Z,9.68
2019-03-19T21:57:14.982Z,14.20
2019-03-19T21:59:55.155Z,12.40
2019-03-19T22:02:35.210Z,16.42
2019-03-19T22:05:15.397Z,16.20
2019-03-19T22:07:55.530Z,11.47
2019-03-19T22:10:35.289Z,12.30
2019-03-19T22:13:15.260Z,15.23
2019-03-19T22:15:55.430Z,13.53
2019-03-19T22:18:35.421Z,13.22
2019-03-19T22:21:15.438Z,8.88
2019-03-19T22:23:55.333Z,11.03
2019-03-19T22:26:35.596Z,11.83
2019-03-19T22:29:15.610Z,10.32
2019-03-19T22:31:55.937Z,12.53
2019-03-19T22:34:35.672Z,9.33
2019-03-19T22:37:15.708Z,9.77
2019-03-19T22:39:55.907Z,11.03
2019-03-19T22:42:36.150Z,14.20
2019-03-19T22:45:16.158Z,12.63
2019-03-19T22:47:56.342Z,11.57
2019-03-19T22:50:36.617Z,9.07
2019-03-19T22:53:16.703Z,11.83
2019-03-19T22:55:56.708Z,15.90
2019-03-19T22:58:36.982Z,13.57
2019-03-19T23:01:16.927Z,13.47
2019-03-19T23:03:56.778Z,12.47
2019-03-19T23:06:36.734Z,15.10
2019-03-19T23:09:39.330Z,13.67
2019-03-19T23:12:19.769Z,19.42
2019-03-19T23:15:20.351Z,19.80
2019-03-19T23:18:00.338Z,14.60
2019-03-19T23:20:40.209Z,21.12
2019-03-19T23:23:19.979Z,20.52
2019-03-19T23:26:00.241Z,19.12
2019-03-19T23:28:39.940Z,24.23
2019-03-19T23:31:19.650Z,19.40
2019-03-19T23:33:59.708Z,16.67
2019-03-19T23:36:39.567Z,10.27
2019-03-19T23:39:19.482Z,11.10
2019-03-19T23:41:59.756Z,11.05
2019-03-19T23:44:39.942Z,13.15
2019-03-19T23:47:19.764Z,11.50
2019-03-19T23:49:59.766Z,7.53
2019-03-19T23:52:39.900Z,9.38
2019-03-19T23:55:20.193Z,12.37
2019-03-19T23:58:00.257Z,10.40
